Time;durP1;ratioP1;P1;durP2;ratioP2;P2;SDS_P1;SDS_P2;PMS_P1;PMS_P2;Temp;Humidity;BMP_temperature;BMP_pressure;BME280_temperature;BME280_humidity;BME280_pressure;Samples;Min_cycle;Max_cycle;Signal;HPM_P1;HPM_P2
2022/09/13 00:00:58;;;;;;;9.50;4.58;;;;;;;13.05;80.11;98869.73;1766035;79;21022;-79
2022/09/13 00:03:27;;;;;;;8.50;3.90;;;;;;;13.09;80.03;98866.09;1784418;78;21005;-79
2022/09/13 00:05:54;;;;;;;9.30;3.75;;;;;;;13.12;80.42;98866.42;1785567;80;21442;-80
2022/09/13 00:08:20;;;;;;;7.83;3.55;;;;;;;13.14;80.36;98867.20;1762532;80;21020;-80
2022/09/13 00:10:48;;;;;;;13.05;4.17;;;;;;;13.16;79.81;98868.00;1778410;79;21026;-79
2022/09/13 00:13:17;;;;;;;7.75;3.70;;;;;;;13.19;80.26;98863.98;1794128;79;21011;-79
2022/09/13 00:15:49;;;;;;;5.80;3.80;;;;;;;13.17;80.25;98859.27;1762035;80;21078;-79
2022/09/13 00:18:17;;;;;;;10.70;4.55;;;;;;;13.16;80.23;98854.11;1758229;79;21083;-79
2022/09/13 00:20:44;;;;;;;10.32;4.22;;;;;;;13.14;80.94;98857.61;1766127;80;21504;-80
2022/09/13 00:23:12;;;;;;;10.30;4.45;;;;;;;13.13;79.48;98860.30;1785638;80;21056;-80
2022/09/13 00:25:39;;;;;;;10.82;4.80;;;;;;;13.10;80.14;98851.28;1774178;79;21027;-82
2022/09/13 00:28:07;;;;;;;8.53;3.75;;;;;;;13.09;79.82;98860.00;1780971;79;21015;-80
2022/09/13 00:30:34;;;;;;;7.25;4.10;;;;;;;13.06;80.13;98854.45;1787814;80;21107;-82
2022/09/13 00:33:03;;;;;;;7.17;4.10;;;;;;;13.05;81.10;98845.38;1779974;79;21022;-81
2022/09/13 00:35:29;;;;;;;8.13;4.22;;;;;;;13.02;80.46;98841.13;1797719;80;21549;-79
2022/09/13 00:38:00;;;;;;;7.70;4.12;;;;;;;13.01;80.35;98849.02;1797932;79;21034;-80
2022/09/13 00:40:29;;;;;;;10.45;3.50;;;;;;;12.93;80.21;98841.05;1775242;80;21536;-78
2022/09/13 00:42:56;;;;;;;6.42;3.60;;;;;;;12.85;79.41;98830.49;1777240;80;21030;-78
2022/09/13 00:45:22;;;;;;;10.60;4.47;;;;;;;12.81;80.94;98829.78;1765288;81;20964;-79
2022/09/13 00:48:02;;;;;;;5.70;3.50;;;;;;;12.79;81.10;98830.27;1768143;80;21019;-78
2022/09/13 00:50:38;;;;;;;6.47;3.40;;;;;;;12.77;80.79;98828.17;1784682;80;21034;-79
2022/09/13 00:53:15;;;;;;;7.62;3.40;;;;;;;12.77;80.88;98828.64;1759850;80;20988;-79
2022/09/13 00:55:59;;;;;;;9.70;4.33;;;;;;;12.75;80.80;98820.86;1797874;80;21055;-80
2022/09/13 00:58:35;;;;;;;;;;;;;;;12.74;79.73;98817.41;1764558;81;20991;-83
2022/09/13 01:01:05;;;;;;;6.15;3.22;;;;;;;12.73;81.08;98823.98;1755991;80;20154;-78
2022/09/13 01:03:34;;;;;;;6.85;3.30;;;;;;;12.71;80.35;98820.59;1749278;80;21020;-83
2022/09/13 01:06:12;;;;;;;7.87;3.02;;;;;;;12.69;81.40;98818.50;1773007;80;21054;-79
2022/09/13 01:08:42;;;;;;;6.97;3.20;;;;;;;12.69;81.03;98818.50;1781162;80;20972;-79
2022/09/13 01:11:28;;;;;;;6.72;3.35;;;;;;;12.69;80.57;98818.06;1757946;80;21493;-80
2022/09/13 01:13:56;;;;;;;6.60;3.52;;;;;;;12.68;80.28;98816.81;1800035;79;21002;-79
2022/09/13 01:16:23;;;;;;;5.17;3.00;;;;;;;12.65;80.74;98812.56;1771787;81;21066;-79
2022/09/13 01:18:50;;;;;;;5.22;2.98;;;;;;;12.62;81.24;98810.06;1794363;79;21053;-79
2022/09/13 01:21:37;;;;;;;5.58;3.25;;;;;;;12.60;80.94;98811.87;1778618;79;20991;-79
2022/09/13 01:24:14;;;;;;;8.28;3.33;;;;;;;12.62;81.70;98811.83;1765280;79;21039;-79
2022/09/13 01:27:20;;;;;;;5.50;3.10;;;;;;;12.62;81.43;98811.37;1765060;80;21043;-79
2022/09/13 01:30:19;;;;;;;6.72;3.50;;;;;;;12.61;81.48;98808.34;1780522;79;21016;-78
2022/09/13 01:33:26;;;;;;;6.53;3.60;;;;;;;12.59;81.67;98802.80;1795554;80;21012;-78
2022/09/13 01:36:23;;;;;;;6.42;3.45;;;;;;;12.61;81.78;98798.38;1787060;79;20952;-80
2022/09/13 01:39:06;;;;;;;8.38;3.58;;;;;;;12.59;81.98;98804.95;1788344;79;21037;-79
2022/09/13 01:42:00;;;;;;;6.87;3.63;;;;;;;12.56;81.77;98808.16;1764908;80;21047;-81
2022/09/13 01:44:53;;;;;;;8.70;3.75;;;;;;;12.48;81.45;98807.13;1765300;79;21019;-79
2022/09/13 01:47:31;;;;;;;6.60;3.60;;;;;;;12.41;81.52;98815.62;1765844;79;21031;-78
2022/09/13 01:50:12;;;;;;;6.30;3.50;;;;;;;12.33;80.96;98821.14;1782973;80;20995;-80
2022/09/13 01:52:53;;;;;;;9.38;4.20;;;;;;;12.26;81.12;98816.20;1803098;79;21071;-80
2022/09/13 01:55:39;;;;;;;8.73;3.85;;;;;;;12.20;81.44;98816.42;1801563;79;21052;-79
2022/09/13 01:58:14;;;;;;;6.90;4.25;;;;;;;12.13;81.62;98814.47;1793436;79;21036;-82
2022/09/13 02:00:46;;;;;;;7.00;3.65;;;;;;;12.02;81.29;98799.70;1752919;80;21524;-80
2022/09/13 02:03:17;;;;;;;7.58;4.47;;;;;;;11.97;81.72;98799.00;1785967;79;21016;-80
2022/09/13 02:05:57;;;;;;;8.95;4.47;;;;;;;11.89;80.72;98803.17;1784405;79;21015;-79
2022/09/13 02:08:45;;;;;;;9.25;3.72;;;;;;;11.83;82.31;98798.15;1765418;80;21050;-80
2022/09/13 02:11:21;;;;;;;8.65;4.47;;;;;;;11.76;84.20;98801.42;1765845;79;20975;-81
2022/09/13 02:14:03;;;;;;;9.15;4.28;;;;;;;11.72;83.70;98795.92;1740191;82;21052;-81
2022/09/13 02:16:44;;;;;;;11.33;4.50;;;;;;;11.67;82.04;98797.36;1742652;82;21043;-78
2022/09/13 02:19:28;;;;;;;14.73;5.00;;;;;;;11.64;82.30;98792.28;1763370;80;21050;-80
2022/09/13 02:21:57;;;;;;;;;;;;;;;11.60;82.48;98785.48;1773663;79;20996;-85
2022/09/13 02:24:38;;;;;;;8.30;4.17;;;;;;;11.58;82.53;98782.08;1800153;79;20100;-81
2022/09/13 02:27:12;;;;;;;6.55;4.28;;;;;;;11.54;83.97;98783.09;1783789;79;21003;-81
2022/09/13 02:29:43;;;;;;;11.12;4.10;;;;;;;11.51;83.40;98780.58;1788650;79;20991;-85
2022/09/13 02:32:15;;;;;;;9.40;4.78;;;;;;;11.49;84.54;98770.20;1775624;80;21020;-81
2022/09/13 02:34:50;;;;;;;7.83;4.85;;;;;;;11.45;85.06;98764.70;1762902;79;20983;-79
2022/09/13 02:37:18;;;;;;;10.75;4.67;;;;;;;11.42;84.77;98766.55;1778563;78;20998;-83
2022/09/13 02:39:55;;;;;;;8.08;4.37;;;;;;;11.38;84.12;98771.04;1800960;78;20978;-82
2022/09/13 02:42:33;;;;;;;12.95;6.20;;;;;;;11.35;83.56;98769.83;1773395;79;21017;-81
2022/09/13 02:45:00;;;;;;;7.03;4.12;;;;;;;11.29;84.11;98777.84;1786710;79;21001;-82
2022/09/13 02:47:44;;;;;;;13.72;3.85;;;;;;;11.23;84.86;98771.08;1774296;79;21558;-80
2022/09/13 02:50:43;;;;;;;;;;;;;;;11.20;84.88;98775.10;1777338;79;20995;-82
2022/09/13 02:53:33;;;;;;;11.38;3.90;;;;;;;11.16;84.70;98776.11;1785630;79;20190;-81
2022/09/13 02:56:14;;;;;;;8.30;4.28;;;;;;;11.11;85.56;98774.93;1783851;79;21007;-82
2022/09/13 02:58:58;;;;;;;6.95;3.75;;;;;;;11.09;85.95;98771.98;1790258;79;21003;-82
2022/09/13 03:01:25;;;;;;;8.75;4.33;;;;;;;11.09;84.30;98774.59;1807877;79;21036;-82
2022/09/13 03:03:53;;;;;;;14.53;4.60;;;;;;;11.03;86.03;98776.09;1762917;79;21007;-82
2022/09/13 03:06:25;;;;;;;7.35;3.98;;;;;;;11.00;85.90;98777.47;1820406;78;21051;-81
2022/09/13 03:08:55;;;;;;;13.55;4.97;;;;;;;10.98;85.43;98765.81;1785708;79;21031;-81
2022/09/13 03:11:53;;;;;;;10.20;4.53;;;;;;;10.99;84.29;98767.53;1762967;80;21007;-81
2022/09/13 03:14:41;;;;;;;17.80;4.75;;;;;;;10.97;85.08;98761.98;1767105;80;21487;-81
2022/09/13 03:17:35;;;;;;;9.78;5.20;;;;;;;10.95;84.77;98759.42;1799073;79;21006;-81
2022/09/13 03:20:14;;;;;;;;;;;;;;;10.98;85.59;98764.97;1793896;79;21106;-81
2022/09/13 03:22:55;;;;;;;9.08;4.58;;;;;;;10.99;84.51;98763.63;1806532;79;20144;-81
2022/09/13 03:25:33;;;;;;;9.93;4.28;;;;;;;10.97;85.17;98768.48;1793403;79;21038;-81
2022/09/13 03:28:29;;;;;;;8.03;4.08;;;;;;;10.93;83.92;98766.42;1763212;80;21004;-81
2022/09/13 03:31:07;;;;;;;10.20;4.40;;;;;;;10.91;84.86;98770.83;1783374;80;21038;-81
2022/09/13 03:33:53;;;;;;;9.63;4.50;;;;;;;10.92;85.07;98769.91;1779661;80;20995;-81
2022/09/13 03:36:53;;;;;;;10.48;4.70;;;;;;;10.88;83.93;98776.98;1754024;80;21507;-81
2022/09/13 03:40:07;;;;;;;16.15;4.87;;;;;;;10.86;83.80;98781.81;1795795;78;21003;-82
2022/09/13 03:42:57;;;;;;;8.07;4.57;;;;;;;10.85;85.01;98782.72;1772554;80;20998;-80
2022/09/13 03:45:28;;;;;;;8.70;4.50;;;;;;;10.87;85.35;98792.17;1792827;80;21034;-80
2022/09/13 03:47:56;;;;;;;11.48;4.00;;;;;;;10.90;85.74;98789.48;1790853;80;20949;-80
2022/09/13 03:50:25;;;;;;;11.33;4.22;;;;;;;10.92;85.05;98785.09;1763418;80;20992;-81
2022/09/13 03:52:57;;;;;;;10.72;4.78;;;;;;;10.92;85.29;98779.89;1785148;79;20992;-80
2022/09/13 03:55:24;;;;;;;17.40;4.67;;;;;;;10.94;85.80;98791.09;1772964;80;21534;-81
2022/09/13 03:57:51;;;;;;;9.95;4.47;;;;;;;10.94;85.29;98783.29;1794397;79;21010;-81
2022/09/13 04:00:18;;;;;;;10.32;4.20;;;;;;;10.95;85.16;98787.58;1787521;80;21547;-82
2022/09/13 04:02:45;;;;;;;9.85;4.33;;;;;;;10.96;85.23;98792.32;1774684;79;21452;-82
2022/09/13 04:05:12;;;;;;;9.95;3.90;;;;;;;10.98;84.28;98792.28;1761356;80;21025;-82
2022/09/13 04:07:39;;;;;;;9.08;4.20;;;;;;;10.98;85.19;98790.98;1790221;80;21030;-82
2022/09/13 04:10:07;;;;;;;8.58;4.35;;;;;;;10.97;84.54;98791.89;1784128;80;21047;-82
2022/09/13 04:12:34;;;;;;;11.38;4.22;;;;;;;10.94;84.73;98793.69;1812157;78;20969;-82
2022/09/13 04:15:01;;;;;;;7.90;4.45;;;;;;;10.94;85.72;98792.81;1787570;77;21002;-83
2022/09/13 04:17:27;;;;;;;17.07;4.85;;;;;;;10.92;84.95;98795.50;1796635;76;21330;-82
2022/09/13 04:19:54;;;;;;;11.20;4.50;;;;;;;10.88;84.28;98795.19;1786165;76;21054;-82
2022/09/13 04:22:20;;;;;;;11.97;4.83;;;;;;;10.86;85.41;98796.11;1797200;76;20992;-81
2022/09/13 04:24:47;;;;;;;14.85;4.70;;;;;;;10.76;85.64;98778.64;1796335;76;20987;-82
2022/09/13 04:27:14;;;;;;;9.93;4.67;;;;;;;10.80;85.30;98793.25;1775312;81;21029;-82
2022/09/13 04:29:40;;;;;;;10.32;4.55;;;;;;;10.74;85.18;98789.11;1767280;81;21123;-82
2022/09/13 04:32:08;;;;;;;14.60;5.22;;;;;;;10.70;85.23;98784.03;1750606;81;21052;-82
2022/09/13 04:34:35;;;;;;;11.18;4.78;;;;;;;10.66;84.55;98794.97;1805286;79;20966;-80
2022/09/13 04:37:02;;;;;;;7.72;4.12;;;;;;;10.63;84.83;98790.33;1777230;81;21001;-80
2022/09/13 04:39:29;;;;;;;11.45;4.78;;;;;;;10.61;85.27;98789.07;1765472;81;20996;-82
2022/09/13 04:41:56;;;;;;;11.20;4.85;;;;;;;10.60;86.06;98792.55;1765546;81;21054;-81
2022/09/13 04:44:23;;;;;;;10.68;4.12;;;;;;;10.59;87.33;98792.17;1765717;81;20970;-82
2022/09/13 04:46:50;;;;;;;10.88;5.33;;;;;;;10.60;87.51;98791.71;1765795;81;21317;-81
2022/09/13 04:49:18;;;;;;;10.48;4.83;;;;;;;10.60;87.07;98800.35;1755269;80;20984;-81
2022/09/13 04:51:46;;;;;;;15.30;5.85;;;;;;;10.60;85.07;98791.25;1757262;81;20996;-81
2022/09/13 04:54:14;;;;;;;10.95;5.45;;;;;;;10.63;86.10;98795.53;1760319;81;21050;-81
2022/09/13 04:56:40;;;;;;;17.12;5.15;;;;;;;10.68;85.36;98797.53;1747714;81;20999;-82
2022/09/13 04:59:09;;;;;;;12.35;5.25;;;;;;;10.68;86.67;98801.42;1760196;81;21022;-81
2022/09/13 05:01:36;;;;;;;11.40;5.00;;;;;;;10.69;86.07;98809.64;1746141;81;21065;-81
2022/09/13 05:04:04;;;;;;;8.95;4.10;;;;;;;10.75;86.11;98810.30;1765360;81;21044;-82
2022/09/13 05:06:31;;;;;;;8.83;4.20;;;;;;;10.78;86.38;98813.25;1763827;81;20994;-87
2022/09/13 05:08:57;;;;;;;8.00;4.08;;;;;;;10.83;86.04;98818.33;1763428;81;20973;-84
2022/09/13 05:11:27;;;;;;;8.98;4.35;;;;;;;10.88;86.32;98827.70;1742472;81;21020;-82
2022/09/13 05:13:58;;;;;;;9.95;4.28;;;;;;;10.97;86.16;98827.01;1765728;81;21006;-81
2022/09/13 05:16:29;;;;;;;9.83;4.47;;;;;;;11.05;87.20;98826.31;1758101;81;21031;-81
2022/09/13 05:18:57;;;;;;;10.68;4.58;;;;;;;11.14;87.00;98836.41;1768008;81;21059;-82
2022/09/13 05:21:26;;;;;;;6.83;3.95;;;;;;;11.20;85.97;98833.65;1791191;79;20990;-81
2022/09/13 05:23:55;;;;;;;6.62;4.15;;;;;;;11.24;86.18;98833.08;1814172;78;21018;-81
2022/09/13 05:26:26;;;;;;;7.25;4.08;;;;;;;11.31;85.96;98839.34;1798317;78;20965;-81
2022/09/13 05:28:53;;;;;;;6.60;3.80;;;;;;;11.38;86.12;98842.62;1798781;78;20978;-82
2022/09/13 05:31:25;;;;;;;10.72;5.58;;;;;;;11.49;86.35;98850.06;1819965;77;21001;-84
2022/09/13 05:33:59;;;;;;;31.75;13.62;;;;;;;11.55;86.47;98849.40;1801239;78;21563;-82
2022/09/13 05:36:27;;;;;;;13.55;5.75;;;;;;;11.65;86.21;98853.02;1802203;79;20987;-81
2022/09/13 05:38:54;;;;;;;14.68;4.67;;;;;;;11.69;85.25;98845.50;1801953;79;21036;-80
2022/09/13 05:41:21;;;;;;;11.15;4.70;;;;;;;11.70;85.34;98842.84;1760292;80;21016;-80
2022/09/13 05:43:48;;;;;;;8.95;4.67;;;;;;;11.75;85.71;98840.92;1772459;79;21047;-80
2022/09/13 05:46:18;;;;;;;7.67;4.58;;;;;;;11.84;86.33;98844.14;1797198;77;20963;-79
2022/09/13 05:48:47;;;;;;;7.47;4.58;;;;;;;11.88;85.63;98844.44;1816969;77;21071;-79
2022/09/13 05:51:20;;;;;;;9.95;4.85;;;;;;;11.87;84.66;98837.51;1782904;79;21563;-78
2022/09/13 05:53:48;;;;;;;;;;;;;;;11.90;84.80;98838.29;1784541;79;21000;-78
2022/09/13 05:56:19;;;;;;;9.98;4.83;;;;;;;11.94;85.10;98839.04;1786555;78;20098;-83
2022/09/13 05:58:47;;;;;;;15.28;4.55;;;;;;;11.94;84.36;98826.86;1795933;78;20979;-79
2022/09/13 06:01:17;;;;;;;10.28;4.20;;;;;;;11.94;85.26;98813.83;1784993;78;21436;-79
2022/09/13 06:03:48;;;;;;;8.68;4.20;;;;;;;11.99;84.08;98807.61;1794508;78;20975;-79
2022/09/13 06:06:16;;;;;;;10.05;4.75;;;;;;;12.01;84.79;98801.43;1783226;78;21003;-78
2022/09/13 06:08:43;;;;;;;9.15;5.22;;;;;;;12.08;85.29;98802.92;1773526;79;20985;-78
2022/09/13 06:11:12;;;;;;;10.95;4.75;;;;;;;12.17;84.13;98795.67;1782911;78;20976;-78
2022/09/13 06:13:42;;;;;;;9.83;4.30;;;;;;;12.25;84.66;98802.75;1784439;79;20966;-79
2022/09/13 06:16:11;;;;;;;11.00;4.08;;;;;;;12.29;84.56;98812.16;1755208;78;21003;-77
2022/09/13 06:18:39;;;;;;;10.80;3.77;;;;;;;12.33;85.30;98809.84;1778154;79;21056;-82
2022/09/13 06:21:10;;;;;;;6.05;4.35;;;;;;;12.41;84.83;98827.34;1765876;79;21027;-80
2022/09/13 06:23:37;;;;;;;9.38;4.33;;;;;;;12.44;84.61;98832.47;1783564;78;21011;-82
2022/09/13 06:26:10;;;;;;;6.80;3.80;;;;;;;12.48;84.77;98824.92;1759162;81;21050;-81
2022/09/13 06:28:38;;;;;;;8.05;4.03;;;;;;;12.55;84.84;98820.31;1795584;78;21054;-81
2022/09/13 06:31:12;;;;;;;11.88;3.85;;;;;;;12.66;84.78;98823.38;1796708;78;21043;-78
2022/09/13 06:33:41;;;;;;;12.55;4.55;;;;;;;12.76;84.75;98826.49;1766553;79;21339;-79
2022/09/13 06:36:13;;;;;;;6.92;4.03;;;;;;;12.88;84.65;98822.10;1790385;78;21038;-79
2022/09/13 06:38:41;;;;;;;9.93;3.33;;;;;;;13.00;84.54;98821.23;1794458;78;21519;-79
2022/09/13 06:41:17;;;;;;;8.43;3.83;;;;;;;13.09;84.06;98826.95;1783453;78;21561;-79
2022/09/13 06:43:44;;;;;;;9.23;3.83;;;;;;;13.18;83.90;98830.94;1748833;80;21027;-77
2022/09/13 06:46:15;;;;;;;7.17;3.27;;;;;;;13.27;83.55;98839.72;1793350;78;21029;-78
2022/09/13 06:48:43;;;;;;;6.45;3.30;;;;;;;13.36;83.46;98848.13;1780861;78;21528;-77
2022/09/13 06:51:15;;;;;;;11.25;3.87;;;;;;;13.49;83.35;98840.19;1782708;78;22366;-80
2022/09/13 06:53:44;;;;;;;9.55;3.50;;;;;;;13.62;83.18;98841.36;1784480;78;21079;-79
2022/09/13 06:56:24;;;;;;;12.35;4.15;;;;;;;13.75;82.49;98844.33;1746424;80;21049;-80
2022/09/13 06:58:58;;;;;;;7.67;3.65;;;;;;;13.83;82.29;98849.23;1791140;78;21023;-78
2022/09/13 07:01:32;;;;;;;8.93;3.80;;;;;;;13.91;81.80;98844.06;1795374;78;20971;-80
2022/09/13 07:04:12;;;;;;;7.20;4.00;;;;;;;14.03;81.67;98838.77;1789877;78;20992;-80
2022/09/13 07:06:43;;;;;;;6.42;3.85;;;;;;;14.16;80.82;98847.38;1798936;78;20991;-80
2022/09/13 07:09:20;;;;;;;7.83;3.52;;;;;;;14.22;80.64;98839.27;1785579;78;21011;-80
2022/09/13 07:11:49;;;;;;;5.95;3.70;;;;;;;14.32;80.58;98835.32;1794216;78;21036;-79
2022/09/13 07:14:21;;;;;;;6.58;3.12;;;;;;;14.38;78.78;98838.97;1785386;78;21039;-82
2022/09/13 07:16:49;;;;;;;7.47;3.40;;;;;;;14.43;77.97;98840.93;1792004;78;21124;-80
2022/09/13 07:19:21;;;;;;;6.62;3.25;;;;;;;14.49;78.83;98847.19;1799151;78;20980;-82
2022/09/13 07:21:49;;;;;;;6.10;3.40;;;;;;;14.51;77.74;98845.82;1780195;78;20999;-80
2022/09/13 07:24:18;;;;;;;9.28;3.12;;;;;;;14.58;78.05;98849.03;1782220;78;21001;-82
2022/09/13 07:26:46;;;;;;;7.25;3.30;;;;;;;14.60;77.32;98846.72;1780400;78;20995;-79
2022/09/13 07:29:17;;;;;;;7.95;3.22;;;;;;;14.67;77.66;98839.47;1763161;79;21082;-81
2022/09/13 07:31:48;;;;;;;6.83;3.12;;;;;;;14.71;77.20;98839.71;1732782;81;21030;-86
2022/09/13 07:34:19;;;;;;;5.28;3.05;;;;;;;14.80;77.36;98834.06;1783421;78;20983;-79
2022/09/13 07:36:47;;;;;;;5.58;3.10;;;;;;;14.87;77.49;98838.54;1740683;81;21063;-80
2022/09/13 07:39:16;;;;;;;7.80;3.12;;;;;;;14.99;77.35;98843.66;1784517;78;21059;-79
2022/09/13 07:41:43;;;;;;;8.33;3.98;;;;;;;15.05;76.46;98843.37;1782001;78;21007;-78
2022/09/13 07:44:14;;;;;;;9.18;4.15;;;;;;;15.15;76.80;98849.86;1784983;78;21552;-78
2022/09/13 07:46:42;;;;;;;9.08;4.17;;;;;;;15.17;75.88;98837.55;1736935;81;21035;-78
2022/09/13 07:49:12;;;;;;;10.75;4.10;;;;;;;15.22;76.03;98842.11;1780055;78;21043;-80
2022/09/13 07:51:42;;;;;;;10.55;4.55;;;;;;;15.29;76.13;98837.41;1787467;78;21000;-80
2022/09/13 07:54:16;;;;;;;6.75;3.92;;;;;;;15.34;75.87;98843.73;1760820;79;20993;-81
2022/09/13 07:56:44;;;;;;;8.93;3.83;;;;;;;15.40;75.92;98835.57;1793278;79;20942;-83
2022/09/13 07:59:14;;;;;;;23.30;5.60;;;;;;;15.48;75.61;98841.31;1789812;79;21012;-82
2022/09/13 08:01:47;;;;;;;10.32;4.17;;;;;;;15.54;73.93;98844.06;1784723;78;21002;-82
2022/09/13 08:04:18;;;;;;;6.28;3.37;;;;;;;15.61;74.47;98842.37;1741820;81;21066;-79
2022/09/13 08:06:45;;;;;;;9.38;4.10;;;;;;;15.68;74.12;98844.25;1784732;78;21017;-80
2022/09/13 08:09:13;;;;;;;11.73;4.12;;;;;;;15.70;74.19;98843.24;1787986;78;21018;-81
2022/09/13 08:11:43;;;;;;;7.78;3.80;;;;;;;15.80;74.18;98842.34;1790692;78;20995;-81
2022/09/13 08:14:13;;;;;;;7.72;4.35;;;;;;;15.88;73.28;98843.28;1765997;78;21054;-81
2022/09/13 08:16:40;;;;;;;8.48;3.60;;;;;;;15.94;71.68;98841.66;1788348;78;21006;-80
2022/09/13 08:19:11;;;;;;;5.58;3.30;;;;;;;16.00;71.82;98841.33;1786384;78;20993;-79
2022/09/13 08:21:40;;;;;;;5.12;2.72;;;;;;;16.09;72.42;98839.56;1788025;78;21038;-80
2022/09/13 08:24:12;;;;;;;9.75;2.62;;;;;;;16.20;66.92;98836.84;1790308;78;21101;-80
2022/09/13 08:26:39;;;;;;;5.30;2.77;;;;;;;16.34;69.18;98838.73;1792293;78;21002;-81
2022/09/13 08:29:06;;;;;;;4.10;2.58;;;;;;;16.42;68.56;98841.33;1776707;79;20974;-81
2022/09/13 08:31:34;;;;;;;7.50;2.70;;;;;;;16.53;68.29;98835.97;1782713;79;21028;-82
2022/09/13 08:34:01;;;;;;;8.63;3.08;;;;;;;16.63;69.20;98828.84;1784027;79;21034;-80
2022/09/13 08:36:28;;;;;;;7.65;3.05;;;;;;;16.75;65.86;98834.34;1777660;79;21026;-79
2022/09/13 08:38:59;;;;;;;5.62;3.25;;;;;;;16.85;67.35;98832.48;1778995;79;20970;-80
2022/09/13 08:41:52;;;;;;;5.42;2.67;;;;;;;16.97;67.79;98840.60;1785232;78;21098;-79
2022/09/13 08:44:33;;;;;;;6.53;2.95;;;;;;;17.09;67.77;98833.38;1777810;79;21008;-81
2022/09/13 08:47:27;;;;;;;4.03;2.40;;;;;;;17.24;66.17;98844.31;1776342;79;21058;-80
2022/09/13 08:50:14;;;;;;;7.50;2.47;;;;;;;17.26;63.21;98837.67;1774466;79;21079;-79
2022/09/13 08:53:16;;;;;;;5.95;3.15;;;;;;;17.36;63.81;98831.42;1792661;78;21011;-80
2022/09/13 08:56:11;;;;;;;5.72;2.67;;;;;;;17.42;65.07;98829.28;1787514;78;21542;-81
2022/09/13 08:59:01;;;;;;;6.17;2.58;;;;;;;17.52;65.72;98825.66;1779013;78;21570;-82
2022/09/13 09:01:59;;;;;;;6.80;2.65;;;;;;;17.63;65.98;98828.52;1702732;81;21041;-78
2022/09/13 09:04:32;;;;;;;5.58;2.70;;;;;;;17.72;65.91;98821.03;1811426;77;21037;-78
2022/09/13 09:07:19;;;;;;;6.53;2.83;;;;;;;17.89;66.43;98828.33;1778956;79;20989;-80
2022/09/13 09:10:07;;;;;;;4.03;2.35;;;;;;;18.05;66.74;98816.91;1776287;79;21070;-82
2022/09/13 09:12:48;;;;;;;9.85;2.65;;;;;;;18.21;66.15;98818.14;1787397;80;21067;-80
2022/09/13 09:15:24;;;;;;;9.20;3.10;;;;;;;18.40;66.14;98814.77;1780620;80;21112;-79
2022/09/13 09:18:14;;;;;;;9.80;2.47;;;;;;;18.54;65.10;98804.66;1791524;78;21000;-80
2022/09/13 09:20:46;;;;;;;8.03;2.70;;;;;;;18.63;64.71;98808.52;1804035;78;21017;-79
2022/09/13 09:23:19;;;;;;;5.28;2.55;;;;;;;18.72;61.01;98804.00;1782124;79;21516;-79
2022/09/13 09:25:46;;;;;;;5.25;2.47;;;;;;;18.80;63.60;98804.39;1780323;79;21555;-79
2022/09/13 09:28:17;;;;;;;5.03;2.67;;;;;;;18.90;62.33;98804.66;1808022;77;20988;-80
2022/09/13 09:31:16;;;;;;;5.25;2.12;;;;;;;18.92;61.69;98800.13;1816926;78;21480;-80
2022/09/13 09:33:54;;;;;;;6.47;3.12;;;;;;;19.02;61.36;98792.45;1779020;78;21039;-80
2022/09/13 09:36:26;;;;;;;6.10;4.08;;;;;;;19.20;61.34;98793.05;1786420;79;20987;-80
2022/09/13 09:38:54;;;;;;;6.45;2.80;;;;;;;19.34;62.04;98791.70;1787821;78;21005;-80
2022/09/13 09:41:33;;;;;;;5.33;2.40;;;;;;;19.47;61.47;98783.81;1787274;79;21058;-80
2022/09/13 09:44:20;;;;;;;9.23;2.83;;;;;;;19.48;60.74;98785.52;1773134;79;21015;-81
2022/09/13 09:46:58;;;;;;;3.90;2.20;;;;;;;19.51;60.28;98785.77;1778644;78;20983;-80
2022/09/13 09:52:50;;;;;;;3.92;2.33;;;;;;;19.75;58.61;98784.14;1778750;79;21112;-79
2022/09/13 09:55:40;;;;;;;11.63;2.62;;;;;;;19.85;58.88;98769.85;1757453;79;22358;-79
2022/09/13 09:58:08;;;;;;;11.75;2.72;;;;;;;20.07;59.61;98771.85;1782430;78;21020;-79
2022/09/13 10:00:52;;;;;;;3.83;2.02;;;;;;;20.27;59.16;98773.10;1789739;78;21082;-78
2022/09/13 10:03:26;;;;;;;4.90;1.95;;;;;;;20.39;58.83;98768.76;1792596;79;21106;-79
2022/09/13 10:06:09;;;;;;;4.65;1.80;;;;;;;20.44;58.55;98764.01;1789691;78;21347;-78
2022/09/13 10:08:40;;;;;;;3.22;1.80;;;;;;;20.48;57.38;98771.24;1785413;78;21016;-80
2022/09/13 10:11:08;;;;;;;5.20;2.12;;;;;;;20.54;56.64;98769.48;1789795;79;21015;-79
2022/09/13 10:13:37;;;;;;;6.95;2.08;;;;;;;20.44;53.23;98764.01;1786789;78;21046;-78
2022/09/13 10:16:08;;;;;;;7.00;2.08;;;;;;;20.42;54.99;98766.75;1787352;79;21036;-80
2022/09/13 10:18:36;;;;;;;4.65;2.33;;;;;;;20.44;54.53;98762.20;1794135;79;21052;-79
2022/09/13 10:21:10;;;;;;;7.15;1.90;;;;;;;20.56;54.45;98760.97;1777178;79;21035;-78
2022/09/13 10:23:37;;;;;;;5.28;2.15;;;;;;;20.66;55.58;98756.74;1781712;79;21002;-79
2022/09/13 10:26:16;;;;;;;5.10;2.08;;;;;;;20.76;55.44;98756.44;1792838;78;21004;-80
2022/09/13 10:28:57;;;;;;;6.12;2.17;;;;;;;20.86;55.63;98757.45;1786905;78;21058;-80
2022/09/13 10:31:31;;;;;;;5.03;2.22;;;;;;;20.91;52.55;98752.31;1781809;78;21006;-79
2022/09/13 10:34:02;;;;;;;7.60;2.17;;;;;;;20.93;55.17;98753.04;1790344;78;21086;-80
2022/09/13 10:36:35;;;;;;;3.83;2.20;;;;;;;20.95;55.29;98746.70;1779794;79;20989;-79
2022/09/13 10:39:06;;;;;;;3.60;2.08;;;;;;;20.97;55.07;98750.53;1775459;80;21497;-80
2022/09/13 10:41:37;;;;;;;5.62;2.00;;;;;;;20.93;53.33;98757.00;1777952;79;21023;-81
2022/09/13 10:44:25;;;;;;;20.52;10.50;;;;;;;20.92;53.06;98754.02;1777685;79;21040;-80
2022/09/13 10:46:52;;;;;;;7.90;2.10;;;;;;;20.97;54.32;98755.37;1796751;79;21003;-80
2022/09/13 10:49:54;;;;;;;9.03;4.00;;;;;;;20.93;53.72;98753.91;1770737;79;21006;-79
2022/09/13 10:52:43;;;;;;;6.17;2.40;;;;;;;20.98;53.60;98752.23;1726833;81;21100;-79
2022/09/13 10:55:30;;;;;;;3.70;1.98;;;;;;;21.08;52.82;98749.28;1767754;80;21011;-79
2022/09/13 10:58:08;;;;;;;4.78;1.70;;;;;;;21.22;52.64;98747.77;1826472;77;21005;-79
2022/09/13 11:00:52;;;;;;;3.40;1.72;;;;;;;21.35;52.33;98748.20;1847158;76;21452;-80
2022/09/13 11:03:51;;;;;;;6.20;1.92;;;;;;;21.48;51.94;98748.97;1842482;77;21085;-79
2022/09/13 11:06:49;;;;;;;7.10;2.00;;;;;;;21.64;52.55;98752.13;1836767;75;21570;-80
2022/09/13 11:09:29;;;;;;;3.00;1.98;;;;;;;21.85;51.16;98747.50;1835796;76;21027;-79
2022/09/13 11:12:30;;;;;;;2.35;1.60;;;;;;;22.00;48.12;98756.91;1776154;79;21509;-80
2022/09/13 11:15:14;;;;;;;5.47;2.08;;;;;;;22.08;50.60;98750.98;1779017;79;21060;-80
2022/09/13 11:18:11;;;;;;;12.45;7.33;;;;;;;22.13;50.13;98754.12;1782030;79;21029;-81
2022/09/13 11:20:56;;;;;;;3.50;2.00;;;;;;;22.08;48.53;98749.66;1783241;79;21075;-80
2022/09/13 11:23:31;;;;;;;7.50;1.95;;;;;;;22.01;49.70;98752.45;1775497;80;21001;-78
2022/09/13 11:26:41;;;;;;;4.33;1.57;;;;;;;21.78;48.86;98760.34;1776141;80;21516;-79
2022/09/13 11:29:30;;;;;;;5.37;1.90;;;;;;;21.68;48.10;98767.30;1782502;79;21063;-80
2022/09/13 11:32:24;;;;;;;5.37;1.92;;;;;;;21.59;49.06;98759.59;1772778;79;21085;-79
2022/09/13 11:35:28;;;;;;;3.12;1.80;;;;;;;21.44;48.11;98756.28;1774783;79;21080;-78
2022/09/13 11:38:17;;;;;;;2.47;1.57;;;;;;;21.31;47.37;98758.61;1777340;78;21444;-78
2022/09/13 11:41:28;;;;;;;2.95;1.62;;;;;;;21.12;48.03;98756.51;1766608;78;21051;-78
2022/09/13 11:44:09;;;;;;;2.77;1.60;;;;;;;20.85;45.77;98761.07;1778620;79;21022;-77
2022/09/13 11:46:59;;;;;;;5.58;2.10;;;;;;;20.62;45.92;98764.52;1767143;79;21019;-78
2022/09/13 11:49:57;;;;;;;5.90;1.98;;;;;;;20.50;47.84;98761.41;1806403;79;21533;-77
2022/09/13 11:52:53;;;;;;;4.55;2.30;;;;;;;20.41;48.52;98757.61;1783578;79;21027;-77
2022/09/13 11:55:53;;;;;;;3.47;2.00;;;;;;;20.30;48.61;98761.02;1719643;79;21086;-78
2022/09/13 11:58:34;;;;;;;10.72;1.95;;;;;;;20.19;46.27;98762.24;1777881;80;21020;-79
2022/09/13 12:01:07;;;;;;;2.72;1.52;;;;;;;20.09;48.45;98762.03;1785304;79;21004;-78
2022/09/13 12:03:51;;;;;;;2.60;1.70;;;;;;;20.06;47.57;98761.78;1778663;78;20958;-77
2022/09/13 12:06:32;;;;;;;3.45;1.35;;;;;;;20.06;48.53;98760.47;1776050;78;21423;-78
2022/09/13 12:09:16;;;;;;;4.50;1.62;;;;;;;20.05;48.94;98763.20;1783748;79;21061;-80
2022/09/13 12:11:47;;;;;;;3.15;1.55;;;;;;;20.06;48.67;98758.31;1796110;79;21039;-78
2022/09/13 12:14:27;;;;;;;4.12;1.45;;;;;;;20.04;49.40;98758.41;1783053;79;21574;-78